Carl Cannon — WDC6533 — position and weather

sailwx.info

Track history (hours):
 
Tides and Currents Weather Stations Pressure Air Temp Water Temp Dewpoint Dewpoint Depression Visibility Wind Speed Wind Dir Waves Ship Positions

Carl Cannon

Owner: American Commercial Lines LLC, Jeffersonville, IN. More information available from US FCC via Universal Licensing System and Coast Guard Vessel Documentation Center.

Last reported at 2017-Dec-27 14:21 UTC. Time now 2018-Jan-21 16:18 UTC.
Position N 31°59' W 091°06'.
Warning: this ship's position is 25 days out of date.

Length 41 m; draft 3.4 m.

MMSI: 367057590.

Date/timePositionNaut miles runAvg speedWind from/ knotsBaromVisibWave heightAir tempDewpointWater temp
2017-Dec-27 14:21N 31°59' W 091°06'3 7.3
2017-Dec-27 13:56N 32°02' W 091°04'5 6.7
2017-Dec-27 13:14N 32°06' W 091°06'1 4.9
2017-Dec-27 13:00N 32°07' W 091°07'1 2.7
2017-Dec-27 12:30N 32°08' W 091°05'3 6.9
2017-Dec-27 12:00N 32°07' W 091°01'4 7.6
2017-Dec-27 11:30N 32°11' W 090°60'4 7.9
2017-Dec-27 11:00N 32°15' W 090°59'4 7.4
2017-Dec-27 10:30N 32°18' W 090°56'3 6.0
2017-Dec-27 10:00N 32°20' W 090°54'3 6.4
2017-Dec-27 09:30N 32°21' W 090°58'3 5.1
2017-Dec-27 09:00N 32°23' W 090°60'3 5.9
2017-Dec-27 08:30N 32°26' W 091°01'4 7.4
2017-Dec-27 08:00N 32°27' W 091°05'3 6.8
2017-Dec-27 07:30N 32°30' W 091°07'4 7.6
2017-Dec-27 07:00N 32°34' W 091°06'4 7.6
2017-Dec-27 06:30N 32°37' W 091°09'  
Track history (hours):
 
Tides and Currents Weather Stations Pressure Air Temp Water Temp Dewpoint Dewpoint Depression Visibility Wind Speed Wind Dir Waves Ship Positions

Carl Cannon

Owner: American Commercial Lines LLC, Jeffersonville, IN. More information available from US FCC via Universal Licensing System and Coast Guard Vessel Documentation Center.

Last reported at 2017-Dec-27 14:21 UTC. Time now 2018-Jan-21 16:18 UTC.
Position N 31°59' W 091°06'.
Warning: this ship's position is 25 days out of date.

Length 41 m; draft 3.4 m.

MMSI: 367057590.

Date/timePositionNaut miles runAvg speedWind from/ knotsBaromVisibWave heightAir tempDewpointWater temp
2017-Dec-27 14:21N 31°59' W 091°06'3 7.3
2017-Dec-27 13:56N 32°02' W 091°04'5 6.7
2017-Dec-27 13:14N 32°06' W 091°06'1 4.9
2017-Dec-27 13:00N 32°07' W 091°07'1 2.7
2017-Dec-27 12:30N 32°08' W 091°05'3 6.9
2017-Dec-27 12:00N 32°07' W 091°01'4 7.6
2017-Dec-27 11:30N 32°11' W 090°60'4 7.9
2017-Dec-27 11:00N 32°15' W 090°59'4 7.4
2017-Dec-27 10:30N 32°18' W 090°56'3 6.0
2017-Dec-27 10:00N 32°20' W 090°54'3 6.4
2017-Dec-27 09:30N 32°21' W 090°58'3 5.1
2017-Dec-27 09:00N 32°23' W 090°60'3 5.9
2017-Dec-27 08:30N 32°26' W 091°01'4 7.4
2017-Dec-27 08:00N 32°27' W 091°05'3 6.8
2017-Dec-27 07:30N 32°30' W 091°07'4 7.6
2017-Dec-27 07:00N 32°34' W 091°06'4 7.6
2017-Dec-27 06:30N 32°37' W 091°09'  

Dump ship's entire track history